Time;durP1;ratioP1;P1;durP2;ratioP2;P2;SDS_P1;SDS_P2;PMS_P1;PMS_P2;Temp;Humidity;BMP_temperature;BMP_pressure;BME280_temperature;BME280_humidity;BME280_pressure;Samples;Min_cycle;Max_cycle;Signal;HPM_P1;HPM_P2
2021/06/09 00:00:29;;;;;;;13.57;11.55;;;;;;;17.36;68.72;98800.28;4991092;28;20401;-89
2021/06/09 00:02:55;;;;;;;13.63;12.23;;;;;;;17.33;68.66;98790.09;4992327;28;20121;-85
2021/06/09 00:05:20;;;;;;;15.35;12.73;;;;;;;17.34;68.60;98799.00;4991726;28;20113;-86
2021/06/09 00:07:46;;;;;;;13.85;12.45;;;;;;;17.33;68.89;98794.72;4990497;28;20041;-84
2021/06/09 00:10:13;;;;;;;13.27;11.90;;;;;;;17.29;68.94;98783.78;4991265;28;20022;-83
2021/06/09 00:12:38;;;;;;;14.68;11.73;;;;;;;17.29;68.73;98786.47;4992062;28;20117;-83
2021/06/09 00:15:08;;;;;;;14.13;11.57;;;;;;;17.29;69.05;98789.97;4992193;28;20026;-84
2021/06/09 00:17:33;;;;;;;14.27;12.77;;;;;;;17.28;68.92;98790.28;4992031;28;20042;-84
2021/06/09 00:19:58;;;;;;;14.13;12.70;;;;;;;17.28;68.81;98791.09;4990512;28;20069;-81
2021/06/09 00:22:24;;;;;;;13.65;12.25;;;;;;;17.25;69.16;98786.34;4990803;28;20084;-85
2021/06/09 00:24:49;;;;;;;15.85;11.65;;;;;;;17.24;68.69;98786.66;4992271;28;20085;-82
2021/06/09 00:27:15;;;;;;;15.75;12.55;;;;;;;17.22;68.80;98789.72;4982112;28;20046;-91
2021/06/09 00:29:40;;;;;;;12.93;11.50;;;;;;;17.18;68.93;98786.06;4991773;28;20032;-88
2021/06/09 00:32:06;;;;;;;14.60;12.88;;;;;;;17.14;68.81;98795.94;4991843;28;20080;-88
2021/06/09 00:34:32;;;;;;;13.07;11.27;;;;;;;17.04;69.11;98799.00;4991844;28;20101;-88
2021/06/09 00:36:58;;;;;;;15.40;12.43;;;;;;;16.90;69.27;98794.56;4991104;28;20034;-89
2021/06/09 00:39:23;;;;;;;14.88;13.25;;;;;;;16.80;69.60;98784.91;4987538;28;20477;-86
2021/06/09 00:41:49;;;;;;;16.27;12.63;;;;;;;16.69;69.84;98786.41;4992552;28;20089;-85
2021/06/09 00:44:14;;;;;;;14.00;12.27;;;;;;;16.62;70.59;98776.13;4991501;28;20192;-89
2021/06/09 00:46:42;;;;;;;16.30;13.90;;;;;;;16.60;70.62;98781.03;4990214;28;20037;-88
2021/06/09 00:49:08;;;;;;;13.70;12.25;;;;;;;16.55;71.28;98785.81;4991786;28;20481;-89
2021/06/09 00:51:34;;;;;;;13.15;11.75;;;;;;;16.54;71.24;98786.91;4986158;28;20035;-84
2021/06/09 00:54:06;;;;;;;15.63;13.60;;;;;;;16.55;71.10;98783.09;4982561;28;20071;-81
2021/06/09 00:56:34;;;;;;;13.20;11.90;;;;;;;16.55;71.38;98783.09;4987130;28;20034;-80
2021/06/09 00:58:59;;;;;;;16.33;12.80;;;;;;;16.57;71.40;98778.97;4992038;28;20030;-83
2021/06/09 01:01:29;;;;;;;14.25;12.57;;;;;;;16.58;71.17;98774.38;4990588;28;20285;-82
2021/06/09 01:03:55;;;;;;;17.80;12.77;;;;;;;16.64;71.26;98786.59;4992334;28;20034;-84
2021/06/09 01:06:21;;;;;;;16.45;12.65;;;;;;;16.64;71.06;98773.09;4990080;28;20060;-84
2021/06/09 01:08:48;;;;;;;13.63;12.13;;;;;;;16.68;70.94;98773.22;4993531;28;20120;-84
2021/06/09 01:11:24;;;;;;;17.17;12.65;;;;;;;16.68;70.92;98776.72;4990024;28;20022;-78
2021/06/09 01:13:51;;;;;;;13.30;11.90;;;;;;;16.71;71.22;98778.78;4992279;28;20030;-82
2021/06/09 01:16:18;;;;;;;13.70;12.15;;;;;;;16.75;70.93;98782.41;4991540;28;20470;-80
2021/06/09 01:18:44;;;;;;;15.48;12.35;;;;;;;16.76;70.85;98773.19;4990595;28;20030;-85
2021/06/09 01:21:10;;;;;;;16.65;12.52;;;;;;;16.79;70.81;98771.75;4990405;28;20030;-84
2021/06/09 01:23:36;;;;;;;16.23;13.82;;;;;;;16.78;70.59;98770.97;4990140;28;20069;-79
2021/06/09 01:26:03;;;;;;;14.20;12.70;;;;;;;16.75;70.55;98763.50;4982630;28;20026;-80
2021/06/09 01:28:28;;;;;;;14.60;11.95;;;;;;;16.76;70.41;98767.78;4991097;28;20031;-80
2021/06/09 01:30:55;;;;;;;14.38;12.85;;;;;;;16.76;70.50;98767.78;4990734;28;20730;-80
2021/06/09 01:33:22;;;;;;;15.75;12.30;;;;;;;16.76;70.40;98775.91;4990365;28;20038;-79
2021/06/09 01:35:54;;;;;;;15.75;12.50;;;;;;;16.74;70.20;98769.25;4982624;28;20031;-79
2021/06/09 01:38:21;;;;;;;15.57;13.57;;;;;;;16.71;70.16;98764.47;4984321;28;20039;-79
2021/06/09 01:40:47;;;;;;;15.50;13.50;;;;;;;16.70;70.50;98769.09;4990144;28;20057;-78
2021/06/09 01:43:13;;;;;;;13.88;12.43;;;;;;;16.71;70.10;98773.38;4991806;28;20030;-78
2021/06/09 01:45:39;;;;;;;14.52;12.38;;;;;;;16.70;69.96;98771.78;4990757;28;20520;-78
2021/06/09 01:48:07;;;;;;;13.00;11.20;;;;;;;16.69;70.21;98762.09;4980355;28;20035;-82
2021/06/09 01:50:33;;;;;;;18.20;12.70;;;;;;;16.69;70.10;98770.19;4985652;28;20046;-84
2021/06/09 01:53:03;;;;;;;15.18;12.15;;;;;;;16.71;69.70;98772.56;4990634;28;20164;-84
2021/06/09 01:55:30;;;;;;;14.23;11.60;;;;;;;16.68;70.26;98775.94;4973840;28;20489;-81
2021/06/09 01:57:56;;;;;;;16.52;11.85;;;;;;;16.68;70.01;98776.72;4971226;28;20030;-82
2021/06/09 02:00:33;;;;;;;18.48;13.30;;;;;;;16.68;69.77;98779.41;4985460;28;20030;-82
2021/06/09 02:02:59;;;;;;;14.88;12.63;;;;;;;16.67;69.96;98767.03;4990208;28;20026;-84
2021/06/09 02:05:34;;;;;;;12.85;11.38;;;;;;;16.66;69.75;98773.53;4990082;28;20034;-85
2021/06/09 02:08:03;;;;;;;12.55;11.00;;;;;;;16.65;69.74;98769.28;4989821;28;20034;-83
2021/06/09 02:10:29;;;;;;;13.98;11.63;;;;;;;16.62;69.69;98773.41;4989657;28;20030;-84
2021/06/09 02:12:58;;;;;;;12.68;10.75;;;;;;;16.57;69.42;98770.09;4985518;28;20057;-84
2021/06/09 02:15:24;;;;;;;12.77;9.88;;;;;;;16.55;69.66;98775.00;4988986;28;20041;-80
2021/06/09 02:17:59;;;;;;;14.05;12.23;;;;;;;16.51;69.92;98779.47;4980850;28;20129;-81
2021/06/09 02:20:27;;;;;;;13.07;11.43;;;;;;;16.47;70.00;98779.31;4985923;28;20033;-79
2021/06/09 02:22:54;;;;;;;12.68;10.23;;;;;;;16.42;69.76;98772.19;5000820;28;20487;-82
2021/06/09 02:25:19;;;;;;;15.13;11.88;;;;;;;16.42;70.02;98779.50;4993030;28;20084;-83
2021/06/09 02:27:45;;;;;;;15.63;10.98;;;;;;;16.40;69.83;98779.81;4979830;28;20485;-84
2021/06/09 02:30:11;;;;;;;12.23;10.82;;;;;;;16.40;70.31;98782.50;5003478;28;20056;-86
2021/06/09 02:32:37;;;;;;;14.38;11.15;;;;;;;16.39;70.37;98780.91;4988082;28;20120;-84
2021/06/09 02:35:11;;;;;;;13.25;11.30;;;;;;;16.38;70.24;98787.44;4993085;28;20551;-84
2021/06/09 02:37:37;;;;;;;16.75;10.57;;;;;;;16.35;70.12;98782.69;4992579;28;20416;-82
2021/06/09 02:40:08;;;;;;;11.95;10.52;;;;;;;16.34;70.19;98789.19;4995392;28;20025;-85
2021/06/09 02:42:33;;;;;;;13.25;10.48;;;;;;;16.32;70.31;98789.50;4996547;28;20034;-85
2021/06/09 02:44:58;;;;;;;14.82;11.57;;;;;;;16.27;70.15;98787.00;4996754;28;20033;-83
2021/06/09 02:47:24;;;;;;;14.40;11.55;;;;;;;16.24;70.33;98792.22;4996134;28;20037;-84
2021/06/09 02:49:51;;;;;;;13.85;11.07;;;;;;;16.22;70.63;98789.03;4996766;28;20065;-86
2021/06/09 02:52:27;;;;;;;16.00;11.35;;;;;;;16.22;70.72;98781.75;4996408;28;20030;-84
2021/06/09 02:54:59;;;;;;;14.65;11.32;;;;;;;16.27;70.67;98786.19;4989547;28;20030;-87
2021/06/09 02:57:35;;;;;;;12.65;11.00;;;;;;;16.37;71.06;98785.84;4993601;28;20040;-87
2021/06/09 03:00:17;;;;;;;15.38;10.20;;;;;;;16.52;70.75;98787.25;4989193;28;20033;-89
2021/06/09 03:03:07;;;;;;;12.60;10.40;;;;;;;16.72;70.31;98791.16;4995816;28;20120;-83
2021/06/09 03:05:54;;;;;;;12.27;10.57;;;;;;;16.91;69.68;98789.97;4990850;28;20065;-88
2021/06/09 03:08:41;;;;;;;11.65;10.45;;;;;;;17.21;68.89;98790.81;4989197;28;20493;-87
2021/06/09 03:11:41;;;;;;;16.67;10.63;;;;;;;17.55;68.08;98799.84;4996450;28;20034;-88
2021/06/09 03:17:08;;;;;;;12.95;9.73;;;;;;;18.35;65.63;98797.31;5010766;28;20057;-85
2021/06/09 03:20:11;;;;;;;11.23;8.70;;;;;;;18.81;64.15;98800.78;4984836;28;20481;-84
2021/06/09 03:22:57;;;;;;;8.82;7.85;;;;;;;19.24;62.25;98804.09;4977563;28;20105;-84
2021/06/09 03:25:30;;;;;;;10.20;8.45;;;;;;;19.69;61.42;98796.94;4995107;28;20125;-83
2021/06/09 03:28:14;;;;;;;9.63;8.52;;;;;;;20.12;60.02;98797.38;4996102;28;20033;-85
2021/06/09 03:30:43;;;;;;;14.68;8.70;;;;;;;20.61;59.08;98790.91;4992231;28;20505;-87
2021/06/09 03:33:11;;;;;;;10.75;7.82;;;;;;;21.09;57.54;98797.16;4984867;28;20068;-85
2021/06/09 03:35:43;;;;;;;8.75;7.90;;;;;;;21.53;55.65;98790.75;5012886;28;20037;-87
2021/06/09 03:38:16;;;;;;;11.63;10.18;;;;;;;22.00;54.33;98793.66;4990888;28;20647;-85
2021/06/09 03:40:44;;;;;;;11.95;8.23;;;;;;;22.45;53.20;98786.75;4993260;28;20076;-83
2021/06/09 03:43:13;;;;;;;12.07;7.57;;;;;;;22.90;52.41;98783.59;4988642;28;20409;-81
2021/06/09 03:45:43;;;;;;;9.57;7.88;;;;;;;23.34;51.15;98778.44;4979032;28;20025;-81
2021/06/09 03:48:10;;;;;;;11.57;7.63;;;;;;;23.80;49.88;98782.94;4985203;28;20473;-82
2021/06/09 03:50:37;;;;;;;12.25;7.45;;;;;;;24.18;48.87;98774.81;4994162;28;20092;-85
2021/06/09 03:53:03;;;;;;;9.73;8.48;;;;;;;24.58;47.43;98778.72;4987985;28;20138;-82
2021/06/09 03:55:35;;;;;;;10.25;9.02;;;;;;;25.05;46.83;98775.59;4986067;28;20117;-82
2021/06/09 03:58:03;;;;;;;7.47;6.68;;;;;;;25.47;45.57;98781.75;4981961;28;20045;-83
2021/06/09 04:00:29;;;;;;;8.85;7.72;;;;;;;25.87;44.81;98782.72;4991766;28;20034;-81
2021/06/09 04:02:56;;;;;;;9.07;7.45;;;;;;;26.20;43.75;98789.09;4993514;28;20036;-81
2021/06/09 04:05:24;;;;;;;6.85;6.25;;;;;;;26.34;42.66;98780.91;4988608;28;20029;-81
2021/06/09 04:07:51;;;;;;;9.10;6.95;;;;;;;26.45;41.87;98788.34;4990709;28;20113;-83
2021/06/09 04:10:19;;;;;;;6.87;6.17;;;;;;;26.40;42.28;98789.50;4993119;28;20076;-85
2021/06/09 04:12:45;;;;;;;7.45;6.65;;;;;;;26.24;42.08;98792.63;4994502;28;20803;-82
2021/06/09 04:15:12;;;;;;;7.28;6.57;;;;;;;25.98;42.47;98797.22;4995540;28;20033;-87
2021/06/09 04:17:39;;;;;;;7.50;6.40;;;;;;;25.64;43.26;98786.50;4994748;28;20104;-85
2021/06/09 04:20:06;;;;;;;6.72;6.03;;;;;;;25.40;43.87;98790.69;4993400;28;20407;-83
2021/06/09 04:22:32;;;;;;;8.43;6.80;;;;;;;25.10;44.56;98792.44;4981619;28;20085;-77
2021/06/09 04:24:59;;;;;;;7.97;7.00;;;;;;;24.87;45.06;98792.66;4994634;28;20058;-77
2021/06/09 04:27:28;;;;;;;13.77;9.25;;;;;;;24.55;45.75;98790.41;4990306;28;20030;-77
2021/06/09 04:29:56;;;;;;;16.73;12.05;;;;;;;24.25;46.26;98801.41;4995049;28;20025;-77
2021/06/09 04:32:22;;;;;;;8.00;7.20;;;;;;;23.95;47.22;98791.34;5012858;28;20116;-76
2021/06/09 04:34:50;;;;;;;14.85;8.35;;;;;;;23.72;47.98;98791.44;4994573;28;20319;-79
2021/06/09 04:37:19;;;;;;;12.50;11.18;;;;;;;23.54;49.03;98789.22;4994777;28;20033;-77
2021/06/09 04:39:45;;;;;;;8.52;7.68;;;;;;;23.35;49.34;98790.13;5005495;28;20034;-79
2021/06/09 04:42:11;;;;;;;9.48;7.65;;;;;;;23.17;49.53;98789.91;5007892;28;20045;-79
2021/06/09 04:44:40;;;;;;;9.43;8.48;;;;;;;23.01;50.02;98798.19;5012267;28;20030;-79
2021/06/09 04:47:06;;;;;;;14.45;11.32;;;;;;;22.88;50.63;98800.31;5011148;28;20053;-78
2021/06/09 04:49:34;;;;;;;11.52;10.30;;;;;;;22.79;50.59;98799.78;4998211;28;20045;-78
2021/06/09 04:52:00;;;;;;;16.20;11.27;;;;;;;22.68;50.84;98799.63;4995284;28;20639;-77
2021/06/09 04:54:26;;;;;;;17.40;11.52;;;;;;;22.60;51.09;98803.34;5011845;28;20382;-79
2021/06/09 04:56:51;;;;;;;8.05;7.25;;;;;;;22.52;51.56;98800.50;4994647;28;20022;-79
2021/06/09 04:59:17;;;;;;;10.52;7.18;;;;;;;22.51;51.94;98801.66;5006668;28;20044;-79
2021/06/09 05:01:42;;;;;;;9.00;7.18;;;;;;;22.63;52.16;98797.16;4998504;28;20034;-78
2021/06/09 05:04:08;;;;;;;7.72;5.72;;;;;;;22.75;51.88;98793.47;5012046;28;20032;-78
2021/06/09 05:06:34;;;;;;;8.55;6.72;;;;;;;22.88;51.80;98803.06;5010806;28;20440;-78
2021/06/09 05:09:00;;;;;;;6.97;6.28;;;;;;;23.05;51.74;98799.03;4994596;28;20038;-78
2021/06/09 05:11:40;;;;;;;7.90;6.95;;;;;;;23.23;51.35;98799.34;4994133;28;20030;-79
2021/06/09 05:14:14;;;;;;;8.02;6.70;;;;;;;23.44;51.43;98801.56;5011706;28;20084;-80
2021/06/09 05:16:42;;;;;;;6.60;6.00;;;;;;;23.69;50.90;98794.88;4993466;28;20117;-85
2021/06/09 05:19:09;;;;;;;8.52;6.40;;;;;;;23.91;50.59;98796.75;4984687;28;20037;-87
2021/06/09 05:21:37;;;;;;;7.25;6.55;;;;;;;24.11;50.18;98802.06;5001592;28;20435;-84
2021/06/09 05:24:04;;;;;;;8.90;6.30;;;;;;;24.33;50.07;98800.34;5009501;28;20050;-84
2021/06/09 05:26:32;;;;;;;8.13;6.05;;;;;;;24.56;49.52;98799.38;4990621;28;20029;-86
2021/06/09 05:29:01;;;;;;;7.15;6.22;;;;;;;24.76;49.54;98798.03;4985344;28;20030;-85
2021/06/09 05:31:30;;;;;;;6.50;5.90;;;;;;;25.09;49.47;98801.81;4992297;28;20032;-84
2021/06/09 05:33:56;;;;;;;6.57;5.65;;;;;;;25.41;48.66;98801.28;4993179;28;20456;-84
2021/06/09 05:36:22;;;;;;;5.57;5.07;;;;;;;25.85;48.22;98801.47;5006048;28;20088;-89
2021/06/09 05:38:48;;;;;;;7.45;4.78;;;;;;;26.37;46.78;98806.75;5004252;28;20033;-83
2021/06/09 05:41:14;;;;;;;8.02;4.70;;;;;;;26.80;45.28;98801.34;4985264;28;20034;-82
2021/06/09 05:43:40;;;;;;;7.22;4.13;;;;;;;27.38;44.43;98806.78;4993305;28;20030;-78
2021/06/09 05:46:08;;;;;;;7.78;4.43;;;;;;;27.80;43.18;98793.34;5010619;28;20399;-83
2021/06/09 05:48:44;;;;;;;3.65;3.38;;;;;;;28.41;41.97;98797.75;4993031;28;20045;-81
2021/06/09 05:51:11;;;;;;;5.10;3.65;;;;;;;28.92;40.92;98795.44;4992747;28;20034;-83
2021/06/09 05:53:38;;;;;;;4.35;3.38;;;;;;;29.46;39.51;98788.66;4993151;28;20109;-88
2021/06/09 05:56:04;;;;;;;4.88;3.60;;;;;;;29.98;38.92;98793.94;5010511;28;20049;-86
2021/06/09 05:58:29;;;;;;;6.15;3.50;;;;;;;30.50;37.91;98787.34;4992544;28;20037;-85
2021/06/09 06:00:58;;;;;;;5.15;3.40;;;;;;;30.89;37.00;98792.63;5009443;28;20075;-83
2021/06/09 06:03:25;;;;;;;5.68;3.47;;;;;;;31.30;36.07;98797.06;4992350;28;20034;-83
2021/06/09 06:05:59;;;;;;;4.28;3.88;;;;;;;31.50;34.56;98790.78;5008152;28;20033;-77
2021/06/09 06:08:26;;;;;;;3.58;3.35;;;;;;;31.48;34.51;98805.00;5016887;28;20433;-84
2021/06/09 06:10:53;;;;;;;5.18;3.75;;;;;;;31.43;35.37;98795.25;4993008;28;20022;-82
2021/06/09 06:13:19;;;;;;;5.63;3.60;;;;;;;31.50;34.86;98804.59;4993223;28;20540;-78
2021/06/09 06:15:46;;;;;;;5.15;3.83;;;;;;;31.49;35.18;98795.50;4993521;28;20476;-78
2021/06/09 06:18:14;;;;;;;4.77;4.37;;;;;;;31.18;34.62;98790.16;4977464;28;20117;-78
2021/06/09 06:20:43;;;;;;;4.88;4.35;;;;;;;30.86;35.67;98787.94;4977349;28;20036;-79
2021/06/09 06:23:09;;;;;;;4.85;4.13;;;;;;;30.56;36.76;98795.13;4977610;28;20046;-80
2021/06/09 06:25:35;;;;;;;5.32;4.43;;;;;;;30.26;37.17;98794.75;4977686;28;20532;-78
2021/06/09 06:28:00;;;;;;;5.47;4.18;;;;;;;30.05;37.59;98801.34;4977454;28;20413;-80
2021/06/09 06:30:26;;;;;;;6.95;4.40;;;;;;;29.89;38.15;98801.13;4977877;28;20026;-80
2021/06/09 06:32:54;;;;;;;4.88;4.47;;;;;;;29.68;36.82;98794.69;4977926;28;20034;-78
2021/06/09 06:35:22;;;;;;;3.92;3.63;;;;;;;29.29;37.58;98793.91;4995289;28;20094;-79
2021/06/09 06:37:50;;;;;;;5.32;4.18;;;;;;;29.18;38.51;98802.25;4994763;28;20041;-80
2021/06/09 06:40:23;;;;;;;4.82;4.13;;;;;;;28.86;38.69;98799.81;4977770;28;20532;-79
2021/06/09 06:42:50;;;;;;;4.85;4.45;;;;;;;28.54;38.94;98798.84;4995111;28;20406;-78
2021/06/09 06:45:16;;;;;;;4.47;4.07;;;;;;;28.23;40.08;98798.63;4995345;28;20037;-78
2021/06/09 06:47:42;;;;;;;4.28;3.88;;;;;;;27.87;40.07;98793.31;4977490;28;20481;-80
2021/06/09 06:50:08;;;;;;;7.50;4.00;;;;;;;27.60;40.81;98793.00;4995111;28;20038;-79
2021/06/09 06:52:34;;;;;;;4.22;3.92;;;;;;;27.47;41.09;98789.91;4995212;28;20486;-79
2021/06/09 06:55:01;;;;;;;4.50;4.07;;;;;;;27.33;41.37;98787.94;4994998;28;20041;-79
2021/06/09 06:57:30;;;;;;;4.28;3.97;;;;;;;27.25;41.11;98786.41;4977545;28;20037;-78
2021/06/09 06:59:58;;;;;;;4.80;3.90;;;;;;;27.09;41.84;98786.84;4976836;28;20472;-79
2021/06/09 07:02:24;;;;;;;4.63;4.22;;;;;;;26.84;42.60;98774.69;4994770;28;20539;-79
2021/06/09 07:04:50;;;;;;;5.18;4.65;;;;;;;26.95;42.68;98788.41;4977241;28;20483;-79
2021/06/09 07:07:17;;;;;;;8.50;3.75;;;;;;;26.84;43.11;98780.19;4994723;28;20105;-79
2021/06/09 07:09:43;;;;;;;6.85;4.60;;;;;;;26.88;43.45;98791.16;4978549;28;20039;-80
2021/06/09 07:12:09;;;;;;;7.65;3.33;;;;;;;26.78;40.43;98786.44;4995763;28;20022;-80
2021/06/09 07:14:36;;;;;;;4.30;3.90;;;;;;;26.57;42.07;98789.94;5002231;28;20025;-82
2021/06/09 07:17:01;;;;;;;5.10;4.60;;;;;;;26.27;41.40;98783.63;5001509;28;20447;-78
2021/06/09 07:19:27;;;;;;;5.63;4.95;;;;;;;26.03;42.46;98796.84;5006821;28;20089;-78
2021/06/09 07:21:54;;;;;;;4.50;4.10;;;;;;;25.93;43.88;98781.16;4979875;28;20022;-84
2021/06/09 07:24:20;;;;;;;6.43;4.23;;;;;;;25.78;43.52;98785.00;4993109;28;20396;-80
2021/06/09 07:26:48;;;;;;;5.20;3.83;;;;;;;25.73;44.44;98795.19;4994993;28;20034;-80
2021/06/09 07:29:19;;;;;;;4.25;3.92;;;;;;;25.77;44.43;98792.44;4996260;28;20044;-80
2021/06/09 07:31:46;;;;;;;4.60;4.20;;;;;;;25.75;43.64;98796.75;4987791;28;20487;-81
2021/06/09 07:34:12;;;;;;;3.80;3.50;;;;;;;25.75;44.01;98794.78;4994495;28;20116;-80
2021/06/09 07:36:46;;;;;;;5.72;5.07;;;;;;;25.73;44.51;98799.84;5012828;28;20112;-81
2021/06/09 07:39:21;;;;;;;4.22;3.72;;;;;;;25.86;44.51;98803.06;4996202;28;20033;-83
2021/06/09 07:41:48;;;;;;;5.65;3.80;;;;;;;25.89;44.08;98794.84;4991965;28;20030;-82
2021/06/09 07:44:17;;;;;;;4.78;4.30;;;;;;;25.78;44.36;98788.56;4995953;28;20184;-81
2021/06/09 07:46:44;;;;;;;4.72;4.28;;;;;;;25.73;42.92;98795.19;4995523;28;20048;-80
2021/06/09 07:49:11;;;;;;;4.47;4.07;;;;;;;25.71;44.17;98797.50;4996017;28;20048;-83
2021/06/09 07:51:37;;;;;;;3.87;3.43;;;;;;;25.73;42.93;98797.91;5003041;28;20041;-83
2021/06/09 07:54:05;;;;;;;4.78;3.55;;;;;;;25.60;42.66;98788.47;4992510;28;20025;-82
2021/06/09 07:56:35;;;;;;;4.70;4.20;;;;;;;25.58;43.51;98790.78;4988300;28;20409;-82
2021/06/09 07:59:04;;;;;;;5.10;3.83;;;;;;;25.63;44.24;98795.13;5001774;28;20026;-82
2021/06/09 08:01:31;;;;;;;3.67;3.05;;;;;;;25.58;43.20;98796.25;4995345;28;20125;-82
2021/06/09 08:03:57;;;;;;;3.17;2.90;;;;;;;25.47;43.85;98800.91;4981475;28;20038;-81
2021/06/09 08:06:24;;;;;;;4.10;3.78;;;;;;;25.45;42.15;98793.09;4975731;28;20490;-81
2021/06/09 08:08:49;;;;;;;3.35;3.05;;;;;;;25.42;43.32;98800.09;4983223;28;20033;-83
2021/06/09 08:11:15;;;;;;;8.45;3.50;;;;;;;25.46;43.57;98791.91;4975581;28;20034;-82
2021/06/09 08:13:43;;;;;;;2.90;2.70;;;;;;;25.52;43.07;98790.38;4975121;28;20120;-82
2021/06/09 08:16:13;;;;;;;3.25;2.90;;;;;;;25.53;42.08;98794.66;4989384;28;20030;-81
2021/06/09 08:18:39;;;;;;;3.63;2.53;;;;;;;25.58;43.23;98793.53;4994614;28;20042;-84
2021/06/09 08:21:12;;;;;;;3.03;2.58;;;;;;;25.72;42.82;98790.88;4994898;28;20048;-80
2021/06/09 08:23:42;;;;;;;2.95;2.38;;;;;;;25.82;39.95;98791.31;4994484;28;20413;-83
2021/06/09 08:26:10;;;;;;;2.78;2.58;;;;;;;25.79;39.79;98786.59;4994974;28;20026;-90
2021/06/09 08:28:37;;;;;;;2.67;2.47;;;;;;;25.72;41.83;98793.59;4994457;28;20390;-85
2021/06/09 08:31:04;;;;;;;3.35;3.05;;;;;;;25.76;40.75;98799.09;4994804;28;20029;-78
2021/06/09 08:33:32;;;;;;;2.57;2.37;;;;;;;25.70;40.07;98797.91;4982031;28;20027;-81
2021/06/09 08:35:57;;;;;;;3.83;2.42;;;;;;;25.55;40.03;98795.09;4999510;28;20038;-80
2021/06/09 08:38:23;;;;;;;4.18;2.97;;;;;;;25.55;41.07;98802.53;4993942;28;20036;-80
2021/06/09 08:40:48;;;;;;;2.72;2.50;;;;;;;25.51;41.44;98801.69;4989372;28;20117;-86
2021/06/09 08:43:15;;;;;;;2.85;2.65;;;;;;;25.46;40.78;98800.09;4975215;28;20659;-81
2021/06/09 08:45:41;;;;;;;2.40;2.03;;;;;;;25.41;39.30;98800.47;4978679;28;20037;-78
2021/06/09 08:48:07;;;;;;;3.28;2.28;;;;;;;25.36;38.66;98806.28;4994233;28;20033;-81
2021/06/09 08:50:34;;;;;;;2.53;2.33;;;;;;;25.28;39.38;98802.72;5007679;28;20084;-81
2021/06/09 08:53:01;;;;;;;4.55;2.65;;;;;;;25.27;40.42;98801.16;5008030;28;20018;-84
2021/06/09 08:55:28;;;;;;;3.72;3.40;;;;;;;25.31;40.33;98793.75;4992948;28;20038;-81
2021/06/09 08:57:54;;;;;;;2.58;2.33;;;;;;;25.38;41.37;98796.56;4978219;28;20471;-80
2021/06/09 09:00:21;;;;;;;2.50;2.30;;;;;;;25.45;39.79;98790.34;4994055;28;20556;-82
2021/06/09 09:02:47;;;;;;;4.25;2.17;;;;;;;25.48;41.43;98792.31;4993708;28;20547;-82
2021/06/09 09:05:13;;;;;;;3.28;2.17;;;;;;;25.48;40.61;98792.31;4993686;28;20038;-83
2021/06/09 09:07:38;;;;;;;2.58;2.38;;;;;;;25.50;41.05;98792.72;5006698;28;20022;-82
2021/06/09 09:10:07;;;;;;;2.60;2.20;;;;;;;25.59;42.34;98789.63;4996735;28;20036;-83
2021/06/09 09:12:35;;;;;;;2.80;2.60;;;;;;;25.61;40.64;98792.78;5010606;28;20033;-85
2021/06/09 09:15:01;;;;;;;2.25;2.05;;;;;;;25.67;42.30;98791.25;4994145;28;20030;-83
2021/06/09 09:17:26;;;;;;;2.70;2.50;;;;;;;25.80;41.57;98797.16;4994393;28;20096;-85
2021/06/09 09:20:04;;;;;;;1.73;1.63;;;;;;;25.91;41.46;98790.94;4982601;28;20089;-89
2021/06/09 09:22:35;;;;;;;2.92;2.45;;;;;;;26.00;41.53;98788.59;4974457;28;20058;-86
2021/06/09 09:25:11;;;;;;;4.28;2.50;;;;;;;26.09;41.39;98780.06;4984876;28;20045;-85
2021/06/09 09:27:36;;;;;;;2.38;2.17;;;;;;;26.15;42.06;98784.00;4993962;28;20607;-86
2021/06/09 09:30:11;;;;;;;3.15;2.30;;;;;;;26.30;41.47;98782.06;4994195;28;20113;-86
2021/06/09 09:32:54;;;;;;;3.85;2.22;;;;;;;26.35;40.62;98781.69;4993939;28;20037;-89
2021/06/09 09:35:26;;;;;;;3.22;2.30;;;;;;;26.41;40.48;98785.59;4992714;28;20057;-85
2021/06/09 09:38:29;;;;;;;4.38;2.55;;;;;;;26.47;40.65;98784.03;4993762;28;20503;-89
2021/06/09 09:41:12;;;;;;;1.90;1.80;;;;;;;26.34;37.51;98786.41;5007199;28;20026;-88
2021/06/09 09:44:02;;;;;;;2.22;2.03;;;;;;;26.26;37.86;98793.03;4993671;28;20030;-89
2021/06/09 09:46:32;;;;;;;2.40;2.20;;;;;;;26.19;37.87;98782.81;4994907;28;20034;-88
2021/06/09 09:49:17;;;;;;;6.22;1.98;;;;;;;26.20;39.97;98786.34;4991957;28;20089;-89
2021/06/09 09:51:55;;;;;;;2.00;1.90;;;;;;;26.26;39.12;98776.59;4993598;28;20018;-86
2021/06/09 09:54:25;;;;;;;;;;;;;;;26.21;38.67;98782.44;4995755;28;20073;-91
2021/06/09 09:56:51;;;;;;;2.75;2.55;;;;;;;26.10;39.30;98773.41;4995318;28;19909;-94
2021/06/09 09:59:17;;;;;;;3.53;2.40;;;;;;;26.06;40.59;98773.34;4996094;28;20026;-93
2021/06/09 10:01:51;;;;;;;4.72;2.92;;;;;;;26.02;39.69;98780.78;4994178;28;20026;-88
2021/06/09 10:04:19;;;;;;;2.85;2.65;;;;;;;25.99;40.14;98781.59;4994257;28;20413;-82
2021/06/09 10:06:47;;;;;;;3.42;3.05;;;;;;;25.97;41.25;98770.22;5012281;28;20057;-90
2021/06/09 10:09:19;;;;;;;2.50;2.30;;;;;;;25.98;40.93;98780.78;5001452;28;20037;-88
2021/06/09 10:11:51;;;;;;;3.25;2.50;;;;;;;25.93;40.83;98764.72;4994724;28;20110;-91
2021/06/09 10:14:21;;;;;;;3.15;2.85;;;;;;;25.98;41.65;98772.56;4993532;28;20041;-86
2021/06/09 10:16:51;;;;;;;4.20;2.67;;;;;;;25.94;41.07;98774.53;4992583;28;20036;-87
2021/06/09 10:19:18;;;;;;;2.72;2.30;;;;;;;25.93;40.22;98769.41;4992271;28;20030;-86
2021/06/09 10:21:48;;;;;;;3.10;2.83;;;;;;;25.79;39.83;98764.66;4992688;28;20424;-88
2021/06/09 10:24:14;;;;;;;6.32;2.83;;;;;;;25.76;39.97;98757.25;4986371;28;20049;-84
2021/06/09 10:26:44;;;;;;;3.15;2.90;;;;;;;25.76;40.55;98752.53;4991107;28;20026;-88
2021/06/09 10:29:17;;;;;;;2.92;2.63;;;;;;;25.75;37.64;98763.88;4991810;28;20125;-90
2021/06/09 10:31:46;;;;;;;3.30;1.95;;;;;;;25.66;37.59;98759.53;4983360;28;20054;-91
2021/06/09 10:34:12;;;;;;;4.35;2.58;;;;;;;25.63;38.12;98754.81;4981137;28;20022;-89
2021/06/09 10:36:46;;;;;;;2.72;2.53;;;;;;;25.60;37.44;98754.81;4986083;28;20040;-87
2021/06/09 10:39:16;;;;;;;4.10;2.30;;;;;;;25.61;37.59;98748.16;4991617;28;20033;-90
2021/06/09 10:41:46;;;;;;;2.15;2.05;;;;;;;25.67;38.35;98741.16;4989861;28;20088;-91
2021/06/09 10:44:18;;;;;;;2.78;2.58;;;;;;;25.74;38.79;98735.69;4992141;28;20030;-88
2021/06/09 10:46:46;;;;;;;2.75;2.42;;;;;;;25.73;38.70;98731.38;4995569;28;20117;-91
2021/06/09 10:49:20;;;;;;;2.75;2.47;;;;;;;25.75;38.67;98747.44;4985019;28;20456;-91
2021/06/09 10:51:48;;;;;;;3.20;2.58;;;;;;;25.78;39.53;98733.78;4972564;28;20032;-86
2021/06/09 10:54:15;;;;;;;2.25;2.05;;;;;;;25.78;39.29;98732.97;4990674;28;20041;-88
2021/06/09 10:56:44;;;;;;;4.88;2.42;;;;;;;25.84;37.59;98731.44;4989597;28;20620;-88
2021/06/09 10:59:13;;;;;;;13.98;8.52;;;;;;;25.82;38.48;98728.31;4980372;28;20025;-86
2021/06/09 11:01:39;;;;;;;15.70;10.40;;;;;;;25.78;37.88;98730.22;4981824;28;20029;-87
2021/06/09 11:04:05;;;;;;;10.93;7.57;;;;;;;25.76;37.93;98733.38;4996092;28;20040;-87
2021/06/09 11:06:57;;;;;;;13.93;6.88;;;;;;;25.76;37.69;98721.63;4998920;28;20116;-89
2021/06/09 11:09:25;;;;;;;9.27;5.18;;;;;;;25.77;38.29;98717.72;4974532;28;20035;-91
2021/06/09 11:12:13;;;;;;;5.72;4.35;;;;;;;25.78;36.41;98717.34;4977846;28;20481;-88
2021/06/09 11:14:55;;;;;;;9.50;6.38;;;;;;;25.72;38.49;98714.19;4979105;28;20521;-94
2021/06/09 11:17:42;;;;;;;6.47;5.18;;;;;;;25.70;39.03;98718.47;4994118;28;20038;-92
2021/06/09 11:20:37;;;;;;;6.65;4.28;;;;;;;25.77;37.84;98701.28;4976409;28;20022;-87
2021/06/09 11:23:37;;;;;;;4.85;4.35;;;;;;;25.81;37.96;98716.56;4981733;28;20047;-92
2021/06/09 11:26:04;;;;;;;5.10;3.78;;;;;;;25.86;39.46;98699.72;4990051;28;20034;-87
2021/06/09 11:28:36;;;;;;;4.28;3.25;;;;;;;25.97;38.03;98693.50;4979531;28;20031;-86
2021/06/09 11:31:09;;;;;;;2.90;2.60;;;;;;;25.94;37.83;98688.78;4992054;28;20064;-88
2021/06/09 11:33:39;;;;;;;3.95;3.17;;;;;;;25.99;37.74;98688.44;4994938;28;20049;-88
2021/06/09 11:36:18;;;;;;;3.40;3.10;;;;;;;25.99;38.31;98667.28;4995162;28;20036;-89
2021/06/09 11:38:52;;;;;;;6.38;4.20;;;;;;;26.05;37.58;98684.91;4994860;28;20385;-87
2021/06/09 11:41:20;;;;;;;5.25;3.28;;;;;;;26.02;37.89;98684.91;4994673;28;20481;-85